createdAt,value
2022-11-29T00:00:36.969Z,10.45
2022-11-29T00:03:29.448Z,10.85
2022-11-29T00:06:27.674Z,11.52
2022-11-29T00:09:14.553Z,11.95
2022-11-29T00:12:13.033Z,12.32
2022-11-29T00:15:00.169Z,11.68
2022-11-29T00:17:46.716Z,11.18
2022-11-29T00:20:34.611Z,12.00
2022-11-29T00:23:22.190Z,11.68
2022-11-29T00:26:08.856Z,11.75
2022-11-29T00:28:55.745Z,12.00
2022-11-29T00:31:42.998Z,12.07
2022-11-29T00:34:29.418Z,12.15
2022-11-29T00:37:16.292Z,12.25
2022-11-29T00:40:03.970Z,11.38
2022-11-29T00:42:50.424Z,12.23
2022-11-29T00:45:37.304Z,12.10
2022-11-29T00:48:24.373Z,11.95
2022-11-29T00:51:11.575Z,12.73
2022-11-29T00:53:58.631Z,12.45
2022-11-29T00:56:45.486Z,12.43
2022-11-29T00:59:32.128Z,12.70
2022-11-29T01:02:19.135Z,12.35
2022-11-29T01:05:05.915Z,13.55
2022-11-29T01:07:53.002Z,13.63
2022-11-29T01:10:39.417Z,12.43
2022-11-29T01:13:26.316Z,13.25
2022-11-29T01:16:14.187Z,13.77
2022-11-29T01:19:00.628Z,12.90
2022-11-29T01:21:47.558Z,12.70
2022-11-29T01:24:34.336Z,12.10
2022-11-29T01:27:21.165Z,12.45
2022-11-29T01:30:09.676Z,12.73
2022-11-29T01:32:56.595Z,12.75
2022-11-29T01:35:51.131Z,13.48
2022-11-29T01:38:38.596Z,12.50
2022-11-29T01:41:28.650Z,12.60
2022-11-29T01:44:15.406Z,13.55
2022-11-29T01:47:01.943Z,12.73
2022-11-29T01:49:50.439Z,13.13
2022-11-29T01:52:40.743Z,12.73
2022-11-29T01:55:26.839Z,12.93
2022-11-29T01:58:13.582Z,11.73
2022-11-29T02:01:01.716Z,13.63
2022-11-29T02:03:48.367Z,13.27
2022-11-29T02:06:36.490Z,13.43
2022-11-29T02:09:24.088Z,12.73
2022-11-29T02:12:39.979Z,14.50
2022-11-29T02:15:45.242Z,15.27
2022-11-29T02:19:20.184Z,14.15
2022-11-29T02:22:10.793Z,14.43
2022-11-29T02:25:12.496Z,14.40
2022-11-29T02:28:25.609Z,14.20
2022-11-29T02:31:48.624Z,14.27
2022-11-29T02:34:59.849Z,14.52
2022-11-29T02:38:06.280Z,13.88
2022-11-29T02:40:51.897Z,13.52
2022-11-29T02:43:57.978Z,15.40
2022-11-29T02:47:01.217Z,14.35
2022-11-29T02:50:18.104Z,14.18
2022-11-29T02:53:26.985Z,14.20
2022-11-29T02:56:15.560Z,14.38
2022-11-29T02:59:27.499Z,13.95
2022-11-29T03:02:37.300Z,14.00
2022-11-29T03:05:44.742Z,13.63
2022-11-29T03:08:44.063Z,15.18
2022-11-29T03:11:50.684Z,14.98
2022-11-29T03:14:50.186Z,14.15
2022-11-29T03:17:57.184Z,14.43
2022-11-29T03:21:08.491Z,14.90
2022-11-29T03:23:58.816Z,14.10
2022-11-29T03:26:57.136Z,13.82
2022-11-29T03:29:59.633Z,14.82
2022-11-29T03:32:55.598Z,15.60
2022-11-29T03:35:56.820Z,14.65
2022-11-29T03:38:44.862Z,15.68
2022-11-29T03:41:40.242Z,14.73
2022-11-29T03:44:31.717Z,15.50
2022-11-29T03:47:23.901Z,16.05
2022-11-29T03:50:18.066Z,16.67
2022-11-29T03:53:17.197Z,16.35
2022-11-29T03:56:22.236Z,16.75
2022-11-29T03:59:08.279Z,16.65
2022-11-29T04:02:29.465Z,16.10
2022-11-29T04:05:43.715Z,16.33
2022-11-29T04:09:01.668Z,16.88
2022-11-29T04:11:56.364Z,14.65
2022-11-29T04:14:41.909Z,16.98
2022-11-29T04:17:41.745Z,16.83
2022-11-29T04:20:49.294Z,16.38
2022-11-29T04:24:08.391Z,16.02
2022-11-29T04:27:08.716Z,17.23
2022-11-29T04:30:22.609Z,17.92
2022-11-29T04:33:08.480Z,16.80
2022-11-29T04:36:43.628Z,16.77
2022-11-29T04:39:54.619Z,16.33
2022-11-29T04:43:21.678Z,16.67
2022-11-29T04:46:44.036Z,17.02
2022-11-29T04:49:43.273Z,17.75
2022-11-29T04:52:28.954Z,16.98
2022-11-29T04:55:29.456Z,17.45
2022-11-29T04:58:37.843Z,18.90
2022-11-29T05:01:47.517Z,17.02
2022-11-29T05:04:36.612Z,17.23
2022-11-29T05:07:22.903Z,17.50
2022-11-29T05:10:08.792Z,16.65
2022-11-29T05:13:15.207Z,17.67
2022-11-29T05:16:09.699Z,18.20
2022-11-29T05:18:55.489Z,19.00
2022-11-29T05:21:55.508Z,17.88
2022-11-29T05:24:53.593Z,18.45
2022-11-29T05:27:51.223Z,17.92
2022-11-29T05:31:08.899Z,17.73
2022-11-29T05:34:34.889Z,18.00
2022-11-29T05:37:48.676Z,16.80
2022-11-29T05:40:34.278Z,18.70
2022-11-29T05:43:51.540Z,18.27
2022-11-29T05:46:47.019Z,18.10
2022-11-29T05:49:41.612Z,32.55
2022-11-29T05:52:42.193Z,18.70
2022-11-29T05:55:48.905Z,18.13
2022-11-29T05:58:45.658Z,17.05
2022-11-29T06:01:39.426Z,18.70
2022-11-29T06:04:25.706Z,16.88
2022-11-29T06:07:26.137Z,17.88
2022-11-29T06:10:22.653Z,18.33
2022-11-29T06:13:08.450Z,18.02
2022-11-29T06:16:21.023Z,18.70
2022-11-29T06:19:07.138Z,17.52
2022-11-29T06:22:21.226Z,17.90
2022-11-29T06:25:35.870Z,22.15
2022-11-29T06:28:48.484Z,20.92
2022-11-29T06:31:44.526Z,19.60
2022-11-29T06:34:36.794Z,20.20
2022-11-29T06:37:49.160Z,19.55
2022-11-29T06:40:34.702Z,20.10
2022-11-29T06:43:20.723Z,20.52
2022-11-29T06:46:28.959Z,21.08
2022-11-29T06:49:50.992Z,21.50
2022-11-29T06:52:48.284Z,18.92
2022-11-29T06:55:39.812Z,20.05
2022-11-29T06:59:02.637Z,19.55
2022-11-29T07:02:15.004Z,21.33
2022-11-29T07:05:10.817Z,19.75
2022-11-29T07:08:00.920Z,19.23
2022-11-29T07:10:49.942Z,19.33
2022-11-29T07:13:35.883Z,19.65
2022-11-29T07:16:33.804Z,19.77
2022-11-29T07:19:31.127Z,19.00
2022-11-29T07:22:17.184Z,19.15
2022-11-29T07:25:47.442Z,20.05
2022-11-29T07:28:38.269Z,18.83
2022-11-29T07:31:24.159Z,18.80
2022-11-29T07:34:27.248Z,18.48
2022-11-29T07:37:29.920Z,19.50
2022-11-29T07:40:48.806Z,18.92
2022-11-29T07:44:03.221Z,19.27
2022-11-29T07:46:48.917Z,18.88
2022-11-29T07:49:34.359Z,21.05
2022-11-29T07:52:20.485Z,20.20
2022-11-29T07:55:06.476Z,20.98
2022-11-29T07:57:52.502Z,21.65
2022-11-29T08:00:38.452Z,20.73
2022-11-29T08:03:24.244Z,20.25
2022-11-29T08:06:10.380Z,20.90
2022-11-29T08:09:01.099Z,20.73
2022-11-29T08:11:48.715Z,20.80
2022-11-29T08:14:34.540Z,21.30
2022-11-29T08:17:20.338Z,21.13
2022-11-29T08:20:07.208Z,21.08
2022-11-29T08:22:58.282Z,20.40
2022-11-29T08:25:45.245Z,20.67
2022-11-29T08:28:31.084Z,21.23
2022-11-29T08:31:17.023Z,20.30
2022-11-29T08:34:02.931Z,22.40
2022-11-29T08:36:49.146Z,21.85
2022-11-29T08:39:34.889Z,21.65
2022-11-29T08:42:20.619Z,22.38
2022-11-29T08:45:07.329Z,21.98
2022-11-29T08:47:52.824Z,23.58
2022-11-29T08:50:38.740Z,22.17
2022-11-29T08:53:43.380Z,24.02
2022-11-29T08:59:34.870Z,24.58
2022-11-29T09:02:20.653Z,23.63
2022-11-29T09:05:07.562Z,26.52
2022-11-29T09:07:53.350Z,24.95
2022-11-29T09:10:40.169Z,24.05
2022-11-29T09:13:25.947Z,23.30
2022-11-29T09:16:14.515Z,24.35
2022-11-29T09:19:00.590Z,24.15
2022-11-29T09:21:46.446Z,25.88
2022-11-29T09:24:33.485Z,25.98
2022-11-29T09:27:19.490Z,25.85
2022-11-29T09:30:05.611Z,25.65
2022-11-29T09:32:51.508Z,24.67
2022-11-29T09:35:37.389Z,24.38
2022-11-29T09:38:23.281Z,23.15
2022-11-29T09:41:38.737Z,24.30
2022-11-29T09:44:46.025Z,22.65
2022-11-29T09:47:59.571Z,22.83
2022-11-29T09:51:01.321Z,21.80
2022-11-29T09:54:01.988Z,22.55
2022-11-29T09:56:53.051Z,23.23
2022-11-29T09:59:38.886Z,22.45
2022-11-29T10:02:37.932Z,21.98
2022-11-29T10:05:28.714Z,21.83
2022-11-29T10:08:29.219Z,21.88
2022-11-29T10:11:15.340Z,20.95
2022-11-29T10:14:14.962Z,21.85
2022-11-29T10:17:00.954Z,20.60
2022-11-29T10:19:54.885Z,21.20
2022-11-29T10:22:40.910Z,21.50
2022-11-29T10:25:42.008Z,20.10
2022-11-29T10:28:31.510Z,21.48
2022-11-29T10:31:25.032Z,21.23
2022-11-29T10:34:19.928Z,22.48
2022-11-29T10:37:12.908Z,21.83
2022-11-29T10:40:04.398Z,20.95
2022-11-29T10:42:52.457Z,21.17
2022-11-29T10:45:50.046Z,22.15
2022-11-29T10:48:36.002Z,21.10
2022-11-29T10:51:22.006Z,21.77
2022-11-29T10:54:29.625Z,21.33
2022-11-29T10:57:21.109Z,19.85
2022-11-29T11:00:11.458Z,20.65
2022-11-29T11:03:15.872Z,21.25
2022-11-29T11:06:02.050Z,22.27
2022-11-29T11:09:12.702Z,23.73
2022-11-29T11:12:00.529Z,24.15
2022-11-29T11:14:47.215Z,23.45
2022-11-29T11:17:33.725Z,23.85
2022-11-29T11:20:21.994Z,24.25
2022-11-29T11:23:23.660Z,23.58
2022-11-29T11:26:12.256Z,22.58
2022-11-29T11:29:02.080Z,23.42
2022-11-29T11:31:57.385Z,21.50
2022-11-29T11:34:52.575Z,22.33
2022-11-29T11:37:38.594Z,23.10
2022-11-29T11:40:30.588Z,23.92
2022-11-29T11:43:20.451Z,25.30
2022-11-29T11:46:08.080Z,24.02
2022-11-29T11:48:54.100Z,23.17
2022-11-29T11:51:42.835Z,22.90
2022-11-29T11:54:29.387Z,24.13
2022-11-29T11:57:20.601Z,23.58
2022-11-29T12:00:07.484Z,24.08
2022-11-29T12:02:57.751Z,24.90
2022-11-29T12:05:46.322Z,23.80
2022-11-29T12:08:33.777Z,22.90
2022-11-29T12:11:20.281Z,23.55
2022-11-29T12:14:06.071Z,22.45
2022-11-29T12:17:07.975Z,22.70
2022-11-29T12:20:15.214Z,23.10
2022-11-29T12:23:38.545Z,21.67
2022-11-29T12:26:58.937Z,22.90
2022-11-29T12:29:36.427Z,22.00
2022-11-29T12:32:45.725Z,20.42
2022-11-29T12:35:31.643Z,19.98
2022-11-29T12:38:26.203Z,19.88
2022-11-29T12:41:47.243Z,20.98
2022-11-29T12:44:58.995Z,21.27
2022-11-29T12:48:19.403Z,21.10
2022-11-29T12:51:24.699Z,21.10
2022-11-29T12:54:47.951Z,22.45
2022-11-29T12:57:47.698Z,21.45
2022-11-29T13:00:41.856Z,20.63
2022-11-29T13:03:57.280Z,20.80
2022-11-29T13:07:08.705Z,21.48
2022-11-29T13:09:54.560Z,22.13
2022-11-29T13:12:43.869Z,20.48
2022-11-29T13:15:52.215Z,19.42
2022-11-29T13:18:49.697Z,19.63
2022-11-29T13:21:54.385Z,21.45
2022-11-29T13:24:51.745Z,22.05
2022-11-29T13:27:43.321Z,22.45
2022-11-29T13:30:28.597Z,20.35
2022-11-29T13:33:28.960Z,19.48
2022-11-29T13:36:34.484Z,20.33
2022-11-29T13:39:45.290Z,19.38
2022-11-29T13:42:36.560Z,19.25
2022-11-29T13:45:30.983Z,19.27
2022-11-29T13:48:28.754Z,19.10
2022-11-29T13:51:34.954Z,19.50
2022-11-29T13:54:30.691Z,19.83
2022-11-29T13:57:16.633Z,19.85
2022-11-29T14:00:02.414Z,18.85
2022-11-29T14:02:50.093Z,21.77
2022-11-29T14:05:43.734Z,22.45
2022-11-29T14:09:02.033Z,22.27
2022-11-29T14:11:39.508Z,19.83
2022-11-29T14:14:49.084Z,19.48
2022-11-29T14:17:45.338Z,20.13
2022-11-29T14:20:30.990Z,20.15
2022-11-29T14:23:31.213Z,21.42
2022-11-29T14:26:28.059Z,18.65
2022-11-29T14:29:54.862Z,22.70
2022-11-29T14:33:04.357Z,24.25
2022-11-29T14:36:03.727Z,19.67
2022-11-29T14:38:58.186Z,17.77
2022-11-29T14:42:03.731Z,18.40
2022-11-29T14:44:55.945Z,17.13
2022-11-29T14:47:48.701Z,18.15
2022-11-29T14:50:39.311Z,16.42
2022-11-29T14:53:32.925Z,17.55
2022-11-29T14:56:30.923Z,17.73
2022-11-29T14:59:50.211Z,15.77
2022-11-29T15:02:35.953Z,15.95
2022-11-29T15:05:32.512Z,15.07
2022-11-29T15:08:28.240Z,15.52
2022-11-29T15:11:31.895Z,16.05
2022-11-29T15:14:36.478Z,16.23
2022-11-29T15:17:38.799Z,15.77
2022-11-29T15:20:38.005Z,16.45
2022-11-29T15:23:23.860Z,16.65
2022-11-29T15:26:20.628Z,16.63
2022-11-29T15:29:18.152Z,17.17
2022-11-29T15:32:05.969Z,15.48
2022-11-29T15:34:53.349Z,22.23
2022-11-29T15:37:42.803Z,17.60
2022-11-29T15:40:37.145Z,24.60
2022-11-29T15:43:34.817Z,20.98
2022-11-29T15:46:24.098Z,18.95
2022-11-29T15:49:24.327Z,15.88
2022-11-29T15:52:20.315Z,17.63
2022-11-29T15:55:13.094Z,19.35
2022-11-29T15:58:05.408Z,19.23
2022-11-29T16:00:54.483Z,19.35
2022-11-29T16:03:44.599Z,19.48
2022-11-29T16:06:30.141Z,18.50
2022-11-29T16:09:20.616Z,18.88
2022-11-29T16:12:14.916Z,18.90
2022-11-29T16:15:01.135Z,18.42
2022-11-29T16:17:46.975Z,17.65
2022-11-29T16:20:32.975Z,18.67
2022-11-29T16:23:18.799Z,18.33
2022-11-29T16:26:04.663Z,18.25
2022-11-29T16:28:52.784Z,18.02
2022-11-29T16:31:38.970Z,15.85
2022-11-29T16:34:33.010Z,14.80
2022-11-29T16:37:20.693Z,14.30
2022-11-29T16:40:07.249Z,14.70
2022-11-29T16:43:23.994Z,15.40
2022-11-29T16:46:22.132Z,14.38
2022-11-29T16:49:30.824Z,14.43
2022-11-29T16:52:31.200Z,14.05
2022-11-29T16:55:18.062Z,16.80
2022-11-29T16:58:04.114Z,17.48
2022-11-29T17:00:49.639Z,19.98
2022-11-29T17:03:35.722Z,22.58
2022-11-29T17:06:22.836Z,19.27
2022-11-29T17:09:16.359Z,19.15
2022-11-29T17:12:02.579Z,20.27
2022-11-29T17:14:48.876Z,19.92
2022-11-29T17:17:35.908Z,20.33
2022-11-29T17:20:22.141Z,20.25
2022-11-29T17:23:10.974Z,21.67
2022-11-29T17:25:57.957Z,21.05
2022-11-29T17:28:45.394Z,20.08
2022-11-29T17:31:31.765Z,19.73
2022-11-29T17:34:17.760Z,24.90
2022-11-29T17:37:03.768Z,23.27
2022-11-29T17:39:49.668Z,22.17
2022-11-29T17:42:35.732Z,22.05
2022-11-29T17:45:21.884Z,22.38
2022-11-29T17:48:07.892Z,20.58
2022-11-29T17:50:53.733Z,21.40
2022-11-29T17:53:39.550Z,21.75
2022-11-29T17:56:25.477Z,21.17
2022-11-29T17:59:11.488Z,21.30
2022-11-29T18:01:57.305Z,21.02
2022-11-29T18:04:44.344Z,20.35
2022-11-29T18:07:30.138Z,20.33
2022-11-29T18:10:12.063Z,20.33
2022-11-29T18:12:57.873Z,20.90
2022-11-29T18:15:43.796Z,23.70
2022-11-29T18:18:37.879Z,23.30
2022-11-29T18:21:24.367Z,21.67
2022-11-29T18:24:10.411Z,22.30
2022-11-29T18:26:56.203Z,22.58
2022-11-29T18:29:42.188Z,24.27
2022-11-29T18:32:28.403Z,24.77
2022-11-29T18:35:14.079Z,26.30
2022-11-29T18:38:15.353Z,29.92
2022-11-29T18:41:10.162Z,23.00
2022-11-29T18:43:58.859Z,24.27
2022-11-29T18:46:45.356Z,28.08
2022-11-29T18:49:31.358Z,24.52
2022-11-29T18:52:17.293Z,24.17
2022-11-29T18:55:03.162Z,24.73
2022-11-29T18:57:49.627Z,24.08
2022-11-29T19:00:35.186Z,24.50
2022-11-29T19:03:21.055Z,23.88
2022-11-29T19:06:15.093Z,23.90
2022-11-29T19:09:01.229Z,24.85
2022-11-29T19:11:48.709Z,26.30
2022-11-29T19:14:35.038Z,25.45
2022-11-29T19:17:20.949Z,25.48
2022-11-29T19:20:08.538Z,26.33
2022-11-29T19:23:00.182Z,25.25
2022-11-29T19:25:46.565Z,25.02
2022-11-29T19:28:32.553Z,23.45
2022-11-29T19:31:19.735Z,25.02
2022-11-29T19:34:06.348Z,24.02
2022-11-29T19:36:52.000Z,25.38
2022-11-29T19:39:38.837Z,24.08
2022-11-29T19:42:24.517Z,26.50
2022-11-29T19:45:18.537Z,26.73
2022-11-29T19:48:04.616Z,37.75
2022-11-29T19:50:50.322Z,26.02
2022-11-29T19:53:36.425Z,27.52
2022-11-29T19:56:22.626Z,25.45
2022-11-29T19:59:08.707Z,26.92
2022-11-29T20:01:54.443Z,25.73
2022-11-29T20:04:40.238Z,24.20
2022-11-29T20:07:26.086Z,24.88
2022-11-29T20:10:12.243Z,25.30
2022-11-29T20:12:58.078Z,25.42
2022-11-29T20:15:43.930Z,25.58
2022-11-29T20:18:33.606Z,25.98
2022-11-29T20:21:27.066Z,25.48
2022-11-29T20:24:14.506Z,26.48
2022-11-29T20:27:00.159Z,25.40
2022-11-29T20:29:46.435Z,24.77
2022-11-29T20:32:32.569Z,26.35
2022-11-29T20:35:18.877Z,25.42
2022-11-29T20:38:40.545Z,25.13
2022-11-29T20:41:39.402Z,25.35
2022-11-29T20:45:06.316Z,26.27
2022-11-29T20:48:00.819Z,25.77
2022-11-29T20:50:56.094Z,26.17
2022-11-29T20:53:44.091Z,26.02
2022-11-29T20:56:29.669Z,25.60
2022-11-29T20:59:15.606Z,24.60
2022-11-29T21:02:02.590Z,24.98
2022-11-29T21:04:49.133Z,22.73
2022-11-29T21:07:35.189Z,24.42
2022-11-29T21:10:21.831Z,24.70
2022-11-29T21:13:07.785Z,25.05
2022-11-29T21:15:53.469Z,24.02
2022-11-29T21:18:39.822Z,23.75
2022-11-29T21:21:33.250Z,24.98
2022-11-29T21:24:47.564Z,25.73
2022-11-29T21:27:34.437Z,24.00
2022-11-29T21:30:22.686Z,23.38
2022-11-29T21:33:08.326Z,22.98
2022-11-29T21:35:57.917Z,24.20
2022-11-29T21:38:43.666Z,23.70
2022-11-29T21:41:29.762Z,23.65
2022-11-29T21:44:15.961Z,23.25
2022-11-29T21:47:01.575Z,24.38
2022-11-29T21:49:47.561Z,23.05
2022-11-29T21:52:33.626Z,23.67
2022-11-29T21:55:19.317Z,24.20
2022-11-29T21:58:05.287Z,22.65
2022-11-29T22:00:51.287Z,23.48
2022-11-29T22:03:37.768Z,24.63
2022-11-29T22:06:27.750Z,23.52
2022-11-29T22:09:13.877Z,24.58
2022-11-29T22:11:59.851Z,24.63
2022-11-29T22:14:46.193Z,25.10
2022-11-29T22:17:32.381Z,23.63
2022-11-29T22:20:18.294Z,26.08
2022-11-29T22:23:04.406Z,24.52
2022-11-29T22:25:50.182Z,23.58
2022-11-29T22:28:35.920Z,24.95
2022-11-29T22:31:30.261Z,24.67
2022-11-29T22:34:54.153Z,23.17
2022-11-29T22:37:56.063Z,25.17
2022-11-29T22:41:08.193Z,23.67
2022-11-29T22:44:19.855Z,27.00
2022-11-29T22:47:20.561Z,22.25
2022-11-29T22:50:08.341Z,25.15
2022-11-29T22:53:02.308Z,23.25
2022-11-29T22:55:49.717Z,24.45
2022-11-29T22:58:36.592Z,22.45
2022-11-29T23:01:33.961Z,24.30
2022-11-29T23:04:20.836Z,24.10
2022-11-29T23:07:13.722Z,24.23
2022-11-29T23:10:00.952Z,23.33
2022-11-29T23:12:48.578Z,22.55
2022-11-29T23:15:36.051Z,23.20
2022-11-29T23:18:25.359Z,23.52
2022-11-29T23:21:27.004Z,23.27
2022-11-29T23:24:15.748Z,23.45
2022-11-29T23:27:20.708Z,23.63
2022-11-29T23:30:15.584Z,23.27
2022-11-29T23:33:04.791Z,22.45
2022-11-29T23:36:27.738Z,22.35
2022-11-29T23:39:28.439Z,21.98
2022-11-29T23:42:24.309Z,21.55
2022-11-29T23:45:25.142Z,21.25
2022-11-29T23:48:12.574Z,21.65
2022-11-29T23:51:09.482Z,21.08
2022-11-29T23:54:09.967Z,21.33
2022-11-29T23:57:02.815Z,19.45
